Current Conditions
Mostly Scattered
Clouds



Pressure
1016.92 (mb) - 30.03 (inHG)
Visibility

7.0 (mimiles) - 11.3 (km)
   Temperature
72  °F
22°C
72  °F
Dewpoint
100  %
 Humidity
   Wind Speed
0  mph
0  kts
0  km/h
0  m/s
   Wind Direction
Calm
Due North
   Airport Data
KBHC
Location Baxley Municipal 5 mi (8.05 km)
Metar :KBHC 180755Z AUTO 00000KT 7SM SCT013 22/22 A3003 RMK AO2
Sun 18th August 03:55 am
   Raw Metar Info
Raw METAR is the most common format in the world for the transmission of observational weather data. It is highly standardized through the International Civil Aviation Organization (ICAO), which allows it to be understood throughout most of the world.
   API Info
Data Provided by
https://www.checkwx.com/weather/KBHC
   © Info
CSS/SVG/PHP scripts were developed by weather34.com for use in the weather34 template © 2015-2019

Guide Info provided by Metar-Wikipedia